Time;durP1;ratioP1;P1;durP2;ratioP2;P2;SDS_P1;SDS_P2;PMS_P1;PMS_P2;Temp;Humidity;BMP_temperature;BMP_pressure;BME280_temperature;BME280_humidity;BME280_pressure;Samples;Min_cycle;Max_cycle;Signal;HPM_P1;HPM_P2
2023/09/05 00:01:03;;;;;;;4.57;3.17;;;18.70;1.00;;;;;;7372568;19;20107;-71
2023/09/05 00:03:33;;;;;;;8.05;3.47;;;18.70;1.00;;;;;;7373497;19;20014;-71
2023/09/05 00:06:10;;;;;;;5.50;3.50;;;18.60;1.00;;;;;;7373011;19;20010;-71
2023/09/05 00:08:40;;;;;;;4.03;3.40;;;18.60;1.00;;;;;;7370416;19;20025;-71
2023/09/05 00:11:10;;;;;;;5.63;3.63;;;18.50;1.00;;;;;;7370819;19;20015;-70
2023/09/05 00:13:40;;;;;;;4.32;3.45;;;18.50;1.00;;;;;;7372887;19;20089;-70
2023/09/05 00:16:10;;;;;;;3.53;3.10;;;18.50;1.00;;;;;;7373270;19;21429;-70
2023/09/05 00:18:40;;;;;;;3.55;3.22;;;18.30;1.00;;;;;;7368615;19;20015;-72
2023/09/05 00:21:18;;;;;;;3.50;3.03;;;18.20;1.00;;;;;;7372318;19;20021;-71
2023/09/05 00:23:48;;;;;;;3.33;3.03;;;18.20;1.00;;;;;;7370711;19;20014;-71
2023/09/05 00:26:18;;;;;;;6.80;3.63;;;18.10;1.00;;;;;;7373485;19;20011;-72
2023/09/05 00:28:50;;;;;;;4.30;3.10;;;18.10;1.00;;;;;;7370756;19;20652;-70
2023/09/05 00:31:20;;;;;;;4.40;3.30;;;18.10;1.00;;;;;;7372005;19;20448;-70
2023/09/05 00:33:50;;;;;;;3.65;3.33;;;18.30;1.00;;;;;;7381187;19;20014;-70
2023/09/05 00:36:22;;;;;;;3.08;2.70;;;18.40;1.00;;;;;;7380828;19;20021;-69
2023/09/05 00:38:52;;;;;;;3.53;2.60;;;18.60;1.00;;;;;;7375641;19;20014;-70
2023/09/05 00:41:22;;;;;;;3.63;2.92;;;18.70;1.00;;;;;;7378662;19;20010;-70
2023/09/05 00:43:52;;;;;;;3.45;2.53;;;18.80;1.00;;;;;;7379807;19;20089;-70
2023/09/05 00:46:22;;;;;;;3.67;2.58;;;18.70;1.00;;;;;;7382419;19;20411;-71
2023/09/05 00:48:52;;;;;;;4.22;2.50;;;19.00;1.00;;;;;;7379894;19;20022;-70
2023/09/05 00:51:25;;;;;;;3.65;2.67;;;18.90;1.00;;;;;;7382707;19;20022;-71
2023/09/05 00:53:55;;;;;;;5.03;2.75;;;18.80;1.00;;;;;;7385032;19;20023;-70
2023/09/05 00:56:25;;;;;;;3.25;2.70;;;18.80;1.00;;;;;;7386023;19;20034;-70
2023/09/05 00:58:55;;;;;;;3.65;2.40;;;18.80;1.00;;;;;;7375501;19;20015;-71
2023/09/05 01:01:25;;;;;;;4.32;2.50;;;18.80;1.00;;;;;;7377638;19;20010;-71
2023/09/05 01:03:57;;;;;;;4.38;2.45;;;18.80;1.00;;;;;;7379728;19;20002;-71
2023/09/05 01:06:39;;;;;;;3.45;2.35;;;18.80;1.00;;;;;;7379108;19;20019;-71
2023/09/05 01:09:20;;;;;;;2.80;2.30;;;18.80;1.00;;;;;;7376461;19;20034;-69
2023/09/05 01:11:51;;;;;;;4.78;2.67;;;18.70;1.00;;;;;;7376747;19;20031;-70
2023/09/05 01:14:21;;;;;;;4.78;2.53;;;18.60;1.00;;;;;;7379253;19;20007;-70
2023/09/05 01:16:51;;;;;;;3.28;2.92;;;18.60;1.00;;;;;;7378669;19;20463;-71
2023/09/05 01:19:21;;;;;;;4.35;2.60;;;18.50;1.00;;;;;;7368833;19;20629;-71
2023/09/05 01:22:09;;;;;;;3.33;2.72;;;18.40;1.00;;;;;;7375091;19;20022;-71
2023/09/05 01:24:42;;;;;;;3.13;2.50;;;18.30;1.00;;;;;;7378010;19;20013;-70
2023/09/05 01:27:17;;;;;;;3.55;2.90;;;18.20;1.00;;;;;;7375916;19;20011;-71
2023/09/05 01:29:48;;;;;;;2.90;2.53;;;18.20;1.00;;;;;;7375284;19;20628;-71
2023/09/05 01:32:20;;;;;;;5.35;3.00;;;18.20;1.00;;;;;;7378880;19;20027;-70
2023/09/05 01:34:50;;;;;;;3.80;2.40;;;18.10;1.00;;;;;;7378234;19;20011;-70
2023/09/05 01:37:21;;;;;;;3.78;2.65;;;18.00;1.00;;;;;;7378636;19;20098;-70
2023/09/05 01:39:53;;;;;;;4.22;2.35;;;18.00;1.00;;;;;;7373701;19;20006;-70
2023/09/05 01:42:23;;;;;;;4.10;2.80;;;17.90;1.00;;;;;;7376242;19;20015;-71
2023/09/05 01:44:53;;;;;;;4.30;2.83;;;17.90;1.00;;;;;;7377378;19;20010;-70
2023/09/05 01:47:23;;;;;;;3.67;2.60;;;17.80;1.00;;;;;;7377909;19;20018;-69
2023/09/05 01:49:54;;;;;;;3.20;2.70;;;17.80;1.00;;;;;;7375516;19;20999;-69
2023/09/05 01:52:24;;;;;;;3.33;2.83;;;17.80;1.00;;;;;;7379335;19;20082;-71
2023/09/05 01:54:57;;;;;;;3.42;2.60;;;17.90;1.00;;;;;;7377804;19;20500;-69
2023/09/05 01:57:27;;;;;;;4.40;2.50;;;17.90;1.00;;;;;;7378919;19;20013;-70
2023/09/05 01:59:57;;;;;;;3.55;2.58;;;18.10;1.00;;;;;;7373754;19;20010;-70
2023/09/05 02:02:27;;;;;;;3.65;2.40;;;18.10;1.00;;;;;;7377548;19;20010;-70
2023/09/05 02:04:57;;;;;;;5.30;2.47;;;18.20;1.00;;;;;;7376671;19;20031;-70
2023/09/05 02:07:27;;;;;;;4.40;2.72;;;18.10;1.00;;;;;;7376758;19;20484;-70
2023/09/05 02:10:00;;;;;;;4.55;2.60;;;18.20;1.00;;;;;;7374433;19;20017;-69
2023/09/05 02:12:30;;;;;;;5.78;2.47;;;18.20;1.00;;;;;;7377877;19;20021;-70
2023/09/05 02:15:00;;;;;;;5.20;2.85;;;18.10;1.00;;;;;;7377101;19;20020;-69
2023/09/05 02:17:30;;;;;;;4.15;2.47;;;17.90;1.00;;;;;;7375992;19;20024;-69
2023/09/05 02:20:00;;;;;;;3.35;2.60;;;17.70;1.00;;;;;;7374800;19;20470;-70
2023/09/05 02:22:31;;;;;;;5.18;3.05;;;17.60;1.00;;;;;;7377492;19;20017;-69
2023/09/05 02:25:04;;;;;;;6.38;2.78;;;17.50;1.00;;;;;;7377104;19;20038;-69
2023/09/05 02:27:34;;;;;;;3.53;2.88;;;17.30;1.00;;;;;;7375791;19;20413;-69
2023/09/05 02:30:04;;;;;;;5.05;2.58;;;17.30;1.00;;;;;;7375168;19;20542;-69
2023/09/05 02:32:34;;;;;;;3.28;2.95;;;17.30;1.00;;;;;;7376483;19;20061;-70
2023/09/05 02:35:05;;;;;;;3.53;2.88;;;17.30;1.00;;;;;;7376573;19;20018;-69
2023/09/05 02:37:35;;;;;;;3.90;2.60;;;17.10;1.00;;;;;;7374867;19;20077;-70
2023/09/05 02:40:09;;;;;;;4.38;2.70;;;17.10;1.00;;;;;;7373893;19;20007;-70
2023/09/05 02:42:39;;;;;;;2.97;2.42;;;17.00;1.00;;;;;;7376133;19;20014;-70
2023/09/05 02:45:11;;;;;;;4.13;3.08;;;17.00;1.00;;;;;;7375680;19;20018;-70
2023/09/05 02:47:41;;;;;;;3.38;2.50;;;17.10;1.00;;;;;;7373035;19;20010;-69
2023/09/05 02:50:12;;;;;;;3.28;2.60;;;17.10;1.00;;;;;;7375791;19;20109;-71
2023/09/05 02:52:41;;;;;;;4.85;2.70;;;17.10;1.00;;;;;;7375659;19;20023;-69
2023/09/05 02:55:19;;;;;;;6.63;2.92;;;17.10;1.00;;;;;;7375843;19;20015;-70
2023/09/05 02:57:49;;;;;;;3.60;2.63;;;17.10;1.00;;;;;;7372943;19;20109;-69
2023/09/05 03:00:20;;;;;;;4.32;2.50;;;17.00;1.00;;;;;;7374763;19;20090;-69
2023/09/05 03:02:50;;;;;;;4.22;2.83;;;17.00;1.00;;;;;;7375969;19;20073;-69
2023/09/05 03:05:20;;;;;;;3.28;2.58;;;17.00;1.00;;;;;;7374984;19;20011;-70
2023/09/05 03:07:50;;;;;;;3.65;2.40;;;16.80;1.00;;;;;;7373203;19;20021;-70
2023/09/05 03:10:22;;;;;;;3.33;2.63;;;16.80;1.00;;;;;;7375200;19;20592;-70
2023/09/05 03:12:52;;;;;;;3.70;2.72;;;16.60;1.00;;;;;;7375179;19;20575;-69
2023/09/05 03:15:23;;;;;;;4.68;2.60;;;16.60;1.00;;;;;;7375430;19;20097;-71
2023/09/05 03:17:53;;;;;;;2.65;2.05;;;16.50;1.00;;;;;;7372412;19;20506;-69
2023/09/05 03:20:25;;;;;;;3.45;2.50;;;16.60;1.00;;;;;;7372605;19;20022;-69
2023/09/05 03:22:55;;;;;;;3.72;2.50;;;16.60;1.00;;;;;;7375914;19;20017;-70
2023/09/05 03:25:28;;;;;;;5.18;2.88;;;16.70;1.00;;;;;;7374877;19;20497;-70
2023/09/05 03:27:58;;;;;;;3.55;2.40;;;16.80;1.00;;;;;;7372303;19;20082;-69
2023/09/05 03:30:28;;;;;;;3.45;2.30;;;16.90;1.00;;;;;;7373940;19;20010;-71
2023/09/05 03:32:58;;;;;;;5.47;2.70;;;16.80;1.00;;;;;;7374697;19;20034;-69
2023/09/05 03:35:28;;;;;;;3.47;2.50;;;16.90;1.00;;;;;;7374678;19;20089;-69
2023/09/05 03:37:58;;;;;;;4.75;2.83;;;17.00;1.00;;;;;;7372307;19;20936;-71
2023/09/05 03:40:30;;;;;;;3.38;2.20;;;17.00;1.00;;;;;;7373793;19;20089;-70
2023/09/05 03:43:00;;;;;;;3.58;2.45;;;17.00;1.00;;;;;;7374348;19;20010;-70
2023/09/05 03:45:30;;;;;;;4.28;2.38;;;16.90;1.00;;;;;;7374556;19;20088;-70
2023/09/05 03:48:01;;;;;;;2.92;2.47;;;16.90;1.00;;;;;;7372680;19;20102;-69
2023/09/05 03:50:31;;;;;;;3.92;2.42;;;16.90;1.00;;;;;;7374449;19;20018;-70
2023/09/05 03:53:01;;;;;;;2.70;2.33;;;16.80;1.00;;;;;;7374463;19;20073;-70
2023/09/05 03:55:34;;;;;;;4.85;2.47;;;16.70;1.00;;;;;;7374269;19;20084;-70
2023/09/05 03:58:05;;;;;;;5.85;2.78;;;16.70;1.00;;;;;;7369481;19;20014;-70
2023/09/05 04:00:35;;;;;;;4.18;2.63;;;16.60;1.00;;;;;;7372591;19;20098;-70
2023/09/05 04:03:09;;;;;;;5.93;2.80;;;16.70;1.00;;;;;;7373455;19;20369;-69
2023/09/05 04:05:39;;;;;;;;;;;16.60;1.00;;;;;;7376791;19;20018;-70
2023/09/05 04:08:10;;;;;;;4.53;3.05;;;16.60;1.00;;;;;;7385127;19;19915;-71
2023/09/05 04:10:43;;;;;;;4.82;2.90;;;16.60;1.00;;;;;;7387591;19;20006;-70
2023/09/05 04:13:13;;;;;;;5.20;2.67;;;16.50;1.00;;;;;;7388445;19;21545;-70
2023/09/05 04:15:43;;;;;;;5.45;2.72;;;16.40;1.00;;;;;;7387517;19;20090;-71
2023/09/05 04:18:13;;;;;;;4.68;2.40;;;16.50;1.00;;;;;;7384183;19;20007;-70
2023/09/05 04:20:43;;;;;;;3.55;2.85;;;16.40;1.00;;;;;;7387031;19;20014;-70
2023/09/05 04:23:13;;;;;;;5.38;2.80;;;16.50;1.00;;;;;;7385975;19;20018;-71
2023/09/05 04:25:45;;;;;;;5.35;3.03;;;16.30;1.00;;;;;;7387538;19;20117;-70
2023/09/05 04:28:16;;;;;;;3.33;2.53;;;16.20;1.00;;;;;;7384288;19;20018;-70
2023/09/05 04:30:46;;;;;;;3.45;2.78;;;16.20;1.00;;;;;;7386925;19;20074;-70
2023/09/05 04:33:16;;;;;;;3.20;2.78;;;16.30;1.00;;;;;;7388496;19;20010;-70
2023/09/05 04:35:46;;;;;;;3.00;2.28;;;16.30;1.00;;;;;;7387961;19;20014;-70
2023/09/05 04:38:16;;;;;;;3.75;2.80;;;16.30;1.00;;;;;;7383550;19;20037;-70
2023/09/05 04:40:48;;;;;;;3.55;2.60;;;16.40;1.00;;;;;;7386727;19;20020;-70
2023/09/05 04:43:18;;;;;;;6.93;3.00;;;16.40;1.00;;;;;;7386943;19;20077;-71
2023/09/05 04:45:55;;;;;;;7.47;2.90;;;16.40;1.00;;;;;;7385090;19;20013;-70
2023/09/05 04:48:25;;;;;;;7.90;2.85;;;16.40;1.00;;;;;;7384109;19;20078;-70
2023/09/05 04:50:56;;;;;;;6.18;3.00;;;16.40;1.00;;;;;;7383790;19;20014;-71
2023/09/05 04:53:26;;;;;;;6.32;2.75;;;16.40;1.00;;;;;;7384651;19;20010;-70
2023/09/05 04:56:00;;;;;;;4.18;3.00;;;16.30;1.00;;;;;;7385944;19;20007;-70
2023/09/05 04:58:30;;;;;;;3.85;2.60;;;16.30;1.00;;;;;;7384132;19;20013;-70
2023/09/05 05:01:02;;;;;;;4.05;2.85;;;16.40;1.00;;;;;;7385196;19;20014;-70
2023/09/05 05:03:33;;;;;;;4.95;2.75;;;16.60;1.00;;;;;;7385989;19;20014;-70
2023/09/05 05:06:04;;;;;;;6.78;3.30;;;18.10;1.00;;;;;;7386842;19;20098;-70
2023/09/05 05:08:34;;;;;;;6.97;2.78;;;18.80;1.00;;;;;;7383160;19;20006;-68
2023/09/05 05:11:08;;;;;;;6.53;3.05;;;19.10;1.00;;;;;;7385145;19;20082;-70
2023/09/05 05:13:38;;;;;;;5.63;2.65;;;19.80;1.00;;;;;;7385370;19;20096;-71
2023/09/05 05:16:08;;;;;;;3.70;2.85;;;20.40;1.00;;;;;;7384238;19;20048;-70
2023/09/05 05:18:38;;;;;;;4.00;2.83;;;20.80;1.00;;;;;;7375885;19;20115;-70
2023/09/05 05:21:08;;;;;;;3.83;2.70;;;20.80;1.00;;;;;;7376760;19;20503;-70
2023/09/05 05:23:38;;;;;;;8.90;3.45;;;21.00;1.00;;;;;;7378938;19;20025;-69
2023/09/05 05:26:11;;;;;;;6.75;3.28;;;20.80;1.00;;;;;;7378493;19;20098;-70
2023/09/05 05:28:42;;;;;;;7.93;3.10;;;20.70;1.00;;;;;;7375534;19;20006;-70
2023/09/05 05:31:15;;;;;;;5.18;3.13;;;21.00;1.00;;;;;;7376801;19;20077;-70
2023/09/05 05:33:45;;;;;;;14.40;3.65;;;19.00;1.00;;;;;;7378191;19;20038;-70
2023/09/05 05:36:15;;;;;;;7.88;3.08;;;17.80;1.00;;;;;;7378186;19;20014;-69
2023/09/05 05:38:44;;;;;;;6.07;3.80;;;17.50;1.00;;;;;;7373405;19;20082;-70
2023/09/05 05:41:17;;;;;;;5.88;3.25;;;17.70;1.00;;;;;;7376537;19;20349;-70
2023/09/05 05:43:47;;;;;;;8.98;3.35;;;17.70;1.00;;;;;;7377742;19;20406;-70
2023/09/05 05:46:18;;;;;;;8.70;3.10;;;17.80;1.00;;;;;;7377732;19;20086;-70
2023/09/05 05:48:48;;;;;;;5.65;3.05;;;17.90;1.00;;;;;;7375242;19;20011;-70
2023/09/05 05:51:18;;;;;;;4.88;2.85;;;18.00;1.00;;;;;;7376157;19;20374;-70
2023/09/05 05:53:49;;;;;;;5.85;2.70;;;18.10;1.00;;;;;;7377757;19;20078;-71
2023/09/05 05:56:21;;;;;;;6.72;3.28;;;18.10;1.00;;;;;;7377097;19;20332;-70
2023/09/05 05:58:51;;;;;;;6.15;2.72;;;18.20;1.00;;;;;;7375411;19;20014;-70
2023/09/05 06:01:21;;;;;;;4.60;3.13;;;18.30;1.00;;;;;;7375517;19;20646;-71
2023/09/05 06:03:51;;;;;;;5.90;3.08;;;18.40;1.00;;;;;;7376603;19;20578;-71
2023/09/05 06:06:21;;;;;;;7.00;2.70;;;18.40;1.00;;;;;;7376287;19;20014;-72
2023/09/05 06:08:51;;;;;;;7.35;3.17;;;18.60;1.00;;;;;;7374022;19;20078;-70
2023/09/05 06:11:24;;;;;;;6.85;2.67;;;18.70;1.00;;;;;;7375844;19;20018;-70
2023/09/05 06:13:54;;;;;;;4.72;2.72;;;18.60;1.00;;;;;;7377031;19;20096;-70
2023/09/05 06:16:24;;;;;;;5.35;2.60;;;18.50;1.00;;;;;;7376877;19;20014;-70
2023/09/05 06:18:54;;;;;;;4.60;2.92;;;18.70;1.00;;;;;;7373594;19;20011;-71
2023/09/05 06:21:24;;;;;;;6.95;3.10;;;18.70;1.00;;;;;;7374696;19;20041;-70
2023/09/05 06:23:54;;;;;;;7.60;2.88;;;18.80;1.00;;;;;;7375298;19;20078;-69
2023/09/05 06:26:26;;;;;;;4.03;2.60;;;18.90;1.00;;;;;;7374861;19;20020;-70
2023/09/05 06:28:56;;;;;;;10.73;2.85;;;19.10;1.00;;;;;;7368253;19;20027;-71
2023/09/05 06:31:26;;;;;;;3.35;2.50;;;19.20;1.00;;;;;;7375788;19;20021;-70
2023/09/05 06:33:56;;;;;;;4.60;2.35;;;19.20;1.00;;;;;;7375075;19;20021;-70
2023/09/05 06:36:26;;;;;;;9.23;3.13;;;19.20;1.00;;;;;;7376144;19;20021;-70
2023/09/05 06:38:56;;;;;;;4.30;2.50;;;19.30;1.00;;;;;;7371068;19;20006;-70
2023/09/05 06:41:29;;;;;;;3.90;2.50;;;19.20;1.00;;;;;;7374011;19;20015;-70
2023/09/05 06:43:58;;;;;;;3.17;2.50;;;19.10;1.00;;;;;;7373776;19;20034;-70
2023/09/05 06:46:28;;;;;;;4.03;2.45;;;19.40;1.00;;;;;;7373231;19;20020;-71
2023/09/05 06:48:58;;;;;;;4.45;2.78;;;19.60;1.00;;;;;;7370708;19;20379;-70
2023/09/05 06:51:28;;;;;;;4.40;2.25;;;19.70;1.00;;;;;;7370916;19;20445;-70
2023/09/05 06:53:58;;;;;;;3.35;2.63;;;19.80;1.00;;;;;;7372397;19;20011;-70
2023/09/05 06:56:31;;;;;;;7.72;2.78;;;19.80;1.00;;;;;;7373884;19;20031;-70
2023/09/05 06:59:01;;;;;;;3.47;2.38;;;19.90;1.00;;;;;;7369780;19;20015;-71
2023/09/05 07:01:32;;;;;;;3.08;2.40;;;20.10;1.00;;;;;;7371644;19;20086;-71
2023/09/05 07:04:02;;;;;;;6.03;2.50;;;20.20;1.00;;;;;;7372911;19;20017;-71
2023/09/05 07:06:32;;;;;;;6.60;2.20;;;20.30;1.00;;;;;;7372492;19;20010;-69
2023/09/05 07:09:02;;;;;;;5.88;2.50;;;20.30;1.00;;;;;;7366496;19;20006;-72
2023/09/05 07:11:35;;;;;;;4.07;2.63;;;20.20;1.00;;;;;;7371421;19;20052;-72
2023/09/05 07:14:06;;;;;;;6.25;2.72;;;20.20;1.00;;;;;;7371283;19;20085;-69
2023/09/05 07:16:36;;;;;;;5.25;2.50;;;20.20;1.00;;;;;;7372155;19;20015;-71
2023/09/05 07:19:06;;;;;;;3.30;2.28;;;20.30;1.00;;;;;;7369082;19;20382;-69
2023/09/05 07:21:37;;;;;;;5.45;2.55;;;20.40;1.00;;;;;;7372428;19;20018;-70
2023/09/05 07:24:08;;;;;;;4.45;2.50;;;20.50;1.00;;;;;;7369783;19;20080;-70
2023/09/05 07:26:41;;;;;;;5.72;2.88;;;20.80;1.00;;;;;;7373502;19;20010;-69
2023/09/05 07:29:12;;;;;;;4.13;2.50;;;20.80;1.00;;;;;;7368073;19;20014;-70
2023/09/05 07:31:43;;;;;;;7.95;2.80;;;20.70;1.00;;;;;;7372061;19;20010;-70
2023/09/05 07:34:14;;;;;;;4.47;2.20;;;20.70;1.00;;;;;;7372529;19;20538;-69
2023/09/05 07:36:44;;;;;;;3.30;2.17;;;20.90;1.00;;;;;;7374000;19;20006;-69
2023/09/05 07:39:14;;;;;;;9.60;2.60;;;21.10;1.00;;;;;;7368150;19;20829;-70
2023/09/05 07:41:47;;;;;;;6.57;2.58;;;21.20;1.00;;;;;;7368053;19;20016;-70
2023/09/05 07:44:17;;;;;;;5.28;2.63;;;21.20;1.00;;;;;;7372533;19;20380;-70
2023/09/05 07:46:47;;;;;;;4.22;2.60;;;21.30;1.00;;;;;;7373245;19;20018;-69
2023/09/05 07:49:17;;;;;;;2.42;2.15;;;21.30;1.00;;;;;;7368319;19;20014;-70
2023/09/05 07:51:47;;;;;;;3.22;2.53;;;21.30;1.00;;;;;;7371382;19;20011;-70
2023/09/05 07:54:20;;;;;;;4.03;1.98;;;21.20;1.00;;;;;;7371973;19;20034;-69
2023/09/05 07:56:53;;;;;;;2.90;2.15;;;21.70;1.00;;;;;;7374053;19;20035;-70
2023/09/05 07:59:23;;;;;;;2.88;2.35;;;21.70;1.00;;;;;;7368602;19;20648;-69
2023/09/05 08:01:55;;;;;;;3.55;2.33;;;21.80;1.00;;;;;;7372218;19;20086;-70
2023/09/05 08:04:26;;;;;;;5.63;2.38;;;21.90;1.00;;;;;;7372055;19;20021;-69
2023/09/05 08:06:55;;;;;;;6.00;2.20;;;21.70;1.00;;;;;;7373374;19;20020;-70
2023/09/05 08:09:25;;;;;;;5.60;1.80;;;21.80;1.00;;;;;;7365151;19;20346;-69
2023/09/05 08:11:58;;;;;;;4.45;2.25;;;22.10;1.00;;;;;;7372280;19;20014;-70
2023/09/05 08:14:28;;;;;;;3.83;2.10;;;22.00;1.00;;;;;;7372806;19;20020;-69
2023/09/05 08:16:58;;;;;;;2.85;2.20;;;22.20;1.00;;;;;;7373078;19;20475;-70
2023/09/05 08:19:28;;;;;;;3.47;1.80;;;22.10;1.00;;;;;;7369196;19;20048;-70
2023/09/05 08:21:58;;;;;;;2.50;1.75;;;22.20;1.00;;;;;;7371621;19;20024;-70
2023/09/05 08:24:28;;;;;;;3.40;2.08;;;22.20;1.00;;;;;;7370402;19;20031;-69
2023/09/05 08:27:04;;;;;;;8.70;2.33;;;22.40;1.00;;;;;;7372855;19;20010;-70
2023/09/05 08:29:34;;;;;;;3.33;2.03;;;22.50;1.00;;;;;;7368983;19;20391;-69
2023/09/05 08:32:05;;;;;;;4.63;1.80;;;22.60;1.00;;;;;;7372805;19;20014;-69
2023/09/05 08:34:35;;;;;;;4.65;2.28;;;22.50;1.00;;;;;;7373644;19;20093;-70
2023/09/05 08:37:05;;;;;;;3.47;2.00;;;22.80;1.00;;;;;;7371359;19;20018;-71
2023/09/05 08:39:36;;;;;;;4.93;2.03;;;22.60;1.00;;;;;;7367855;19;20034;-70
2023/09/05 08:42:09;;;;;;;2.97;2.53;;;22.80;1.00;;;;;;7372523;19;20100;-70
2023/09/05 08:44:41;;;;;;;11.73;2.15;;;22.70;1.00;;;;;;7370250;19;20810;-69
2023/09/05 08:47:12;;;;;;;3.22;2.25;;;22.80;1.00;;;;;;7371560;19;20025;-69
2023/09/05 08:49:42;;;;;;;2.75;2.05;;;22.90;1.00;;;;;;7366914;19;20592;-70
2023/09/05 08:52:21;;;;;;;2.70;2.00;;;22.90;1.00;;;;;;7374555;19;20007;-69
2023/09/05 08:54:52;;;;;;;4.65;1.95;;;23.10;1.00;;;;;;7374299;19;20489;-70
2023/09/05 08:57:27;;;;;;;5.45;2.15;;;23.30;1.00;;;;;;7377289;19;20030;-69
2023/09/05 08:59:57;;;;;;;4.28;2.08;;;23.50;1.00;;;;;;7374718;19;20354;-69
2023/09/05 09:02:27;;;;;;;3.95;2.47;;;23.50;1.00;;;;;;7378776;19;20471;-69
2023/09/05 09:04:58;;;;;;;2.63;2.03;;;23.60;1.00;;;;;;7376824;19;20078;-69
2023/09/05 09:07:29;;;;;;;4.03;1.85;;;23.70;1.00;;;;;;7378924;19;20404;-69
2023/09/05 09:09:59;;;;;;;3.33;1.98;;;23.80;1.00;;;;;;7373331;19;20068;-68
2023/09/05 09:12:34;;;;;;;3.10;1.90;;;23.60;1.00;;;;;;7376294;19;20344;-69
2023/09/05 09:15:11;;;;;;;2.40;1.70;;;23.70;1.00;;;;;;7377581;19;20010;-70
2023/09/05 09:17:43;;;;;;;3.72;1.80;;;23.80;1.00;;;;;;7375796;19;21102;-69
2023/09/05 09:20:14;;;;;;;2.92;2.10;;;23.90;1.00;;;;;;7374297;19;20010;-69
2023/09/05 09:22:45;;;;;;;2.50;1.70;;;23.80;1.00;;;;;;7379030;19;20038;-69
2023/09/05 09:25:20;;;;;;;2.20;1.70;;;23.60;1.00;;;;;;7376068;19;20010;-69
2023/09/05 09:27:57;;;;;;;1.98;1.50;;;23.80;1.00;;;;;;7371394;19;20011;-69
2023/09/05 09:30:30;;;;;;;3.42;1.90;;;23.80;1.00;;;;;;7376215;19;20014;-70
2023/09/05 09:33:00;;;;;;;2.15;1.90;;;23.70;1.00;;;;;;7378148;19;20031;-70
2023/09/05 09:35:36;;;;;;;3.45;1.88;;;24.00;1.00;;;;;;7377481;19;20006;-70
2023/09/05 09:38:07;;;;;;;3.03;1.55;;;23.80;1.00;;;;;;7370495;19;20015;-69
2023/09/05 09:40:38;;;;;;;2.67;1.60;;;24.00;1.00;;;;;;7377028;19;20027;-69
2023/09/05 09:43:11;;;;;;;3.60;1.70;;;23.80;1.00;;;;;;7375507;19;20010;-70
2023/09/05 09:45:41;;;;;;;3.67;1.63;;;24.00;1.00;;;;;;7373754;19;20018;-71
2023/09/05 09:48:12;;;;;;;3.00;1.52;;;24.50;1.00;;;;;;7370200;19;20027;-70
2023/09/05 09:50:43;;;;;;;2.67;1.60;;;24.50;1.00;;;;;;7376835;19;20042;-69
2023/09/05 09:53:18;;;;;;;2.00;1.80;;;24.40;1.00;;;;;;7377353;19;20027;-71
2023/09/05 09:55:52;;;;;;;6.38;1.73;;;24.60;1.00;;;;;;7377664;19;20422;-71
2023/09/05 09:58:27;;;;;;;4.10;1.77;;;24.40;1.00;;;;;;7371586;19;20098;-69
2023/09/05 10:01:00;;;;;;;1.77;1.42;;;24.20;1.00;;;;;;7375729;19;20017;-68
2023/09/05 10:03:31;;;;;;;3.77;1.57;;;24.50;1.00;;;;;;7373688;19;20459;-69
2023/09/05 10:06:04;;;;;;;3.17;1.65;;;24.50;1.00;;;;;;7377664;19;20014;-69
2023/09/05 10:08:35;;;;;;;2.13;1.50;;;24.90;1.00;;;;;;7371258;19;20026;-70
2023/09/05 10:11:14;;;;;;;2.28;1.30;;;24.70;1.00;;;;;;7375424;19;20576;-70
2023/09/05 10:13:49;;;;;;;3.00;1.73;;;24.90;1.00;;;;;;7376149;19;20077;-71
2023/09/05 10:16:20;;;;;;;1.95;1.70;;;25.10;1.00;;;;;;7377636;19;20118;-70
2023/09/05 10:18:52;;;;;;;2.53;1.60;;;25.10;1.00;;;;;;7370359;19;20024;-69
2023/09/05 10:21:25;;;;;;;2.15;1.55;;;25.30;1.00;;;;;;7374146;19;20019;-70
2023/09/05 10:23:55;;;;;;;1.63;1.15;;;25.60;1.00;;;;;;7375530;19;20074;-70
2023/09/05 10:26:25;;;;;;;3.90;1.30;;;25.60;1.00;;;;;;7376270;19;20014;-69
2023/09/05 10:28:59;;;;;;;3.72;1.38;;;25.40;1.00;;;;;;7370616;19;20167;-70
2023/09/05 10:31:29;;;;;;;2.35;1.45;;;25.30;1.00;;;;;;7375057;19;20007;-70
2023/09/05 10:34:02;;;;;;;2.97;1.48;;;25.30;1.00;;;;;;7375330;19;20014;-69
2023/09/05 10:36:46;;;;;;;2.67;1.52;;;25.00;1.00;;;;;;7376022;19;20006;-70
2023/09/05 10:39:27;;;;;;;2.85;1.45;;;25.20;1.00;;;;;;7368664;19;20430;-70
2023/09/05 10:41:57;;;;;;;2.75;1.30;;;25.50;1.00;;;;;;7372756;19;20011;-70
2023/09/05 10:44:32;;;;;;;3.83;1.65;;;25.60;1.00;;;;;;7375211;19;20034;-70
2023/09/05 10:47:26;;;;;;;3.47;1.60;;;25.60;1.00;;;;;;7375985;19;20090;-69
2023/09/05 10:50:00;;;;;;;2.17;1.50;;;25.70;1.00;;;;;;7369819;19;20027;-70
2023/09/05 10:52:32;;;;;;;2.67;1.80;;;25.40;1.00;;;;;;7376143;19;20575;-70
2023/09/05 10:55:22;;;;;;;3.15;1.75;;;25.60;1.00;;;;;;7375224;19;20016;-69
2023/09/05 10:57:52;;;;;;;1.88;1.60;;;26.00;1.00;;;;;;7371702;19;20418;-71
2023/09/05 11:00:38;;;;;;;2.25;1.58;;;26.30;1.00;;;;;;7372944;19;20102;-69
2023/09/05 11:03:13;;;;;;;4.95;1.60;;;26.20;1.00;;;;;;7375413;19;20018;-69
2023/09/05 11:05:45;;;;;;;2.25;1.40;;;26.00;1.00;;;;;;7373615;19;20372;-70
2023/09/05 11:08:26;;;;;;;1.83;1.20;;;25.90;1.00;;;;;;7368836;19;20010;-70
2023/09/05 11:10:58;;;;;;;2.58;1.52;;;25.50;1.00;;;;;;7371801;19;20014;-70
2023/09/05 11:13:28;;;;;;;5.07;1.63;;;25.70;1.00;;;;;;7374501;19;20014;-71
2023/09/05 11:16:04;;;;;;;3.33;1.80;;;25.70;1.00;;;;;;7372656;19;20011;-70
2023/09/05 11:18:55;;;;;;;3.00;1.67;;;25.70;1.00;;;;;;7365226;19;20015;-71
2023/09/05 11:21:28;;;;;;;2.28;1.27;;;25.90;1.00;;;;;;7372176;19;20010;-70
2023/09/05 11:24:01;;;;;;;1.73;1.40;;;25.90;1.00;;;;;;7372477;19;20037;-70
2023/09/05 11:26:33;;;;;;;2.00;1.27;;;25.90;1.00;;;;;;7371687;19;20014;-70
2023/09/05 11:29:09;;;;;;;2.35;1.45;;;25.90;1.00;;;;;;7365607;19;20025;-71
2023/09/05 11:31:49;;;;;;;2.47;1.50;;;26.10;1.00;;;;;;7371450;19;20102;-70
2023/09/05 11:34:22;;;;;;;3.60;1.25;;;25.90;1.00;;;;;;7372341;19;20010;-70
2023/09/05 11:36:54;;;;;;;5.25;1.40;;;25.90;1.00;;;;;;7372320;19;21268;-71
2023/09/05 11:39:31;;;;;;;2.00;1.30;;;25.90;1.00;;;;;;7368080;19;20480;-71
2023/09/05 11:42:03;;;;;;;1.95;1.30;;;25.80;1.00;;;;;;7372517;19;20021;-70
2023/09/05 11:44:39;;;;;;;3.30;1.50;;;26.30;1.00;;;;;;7373153;19;20014;-70
2023/09/05 11:47:14;;;;;;;1.30;1.20;;;26.30;1.00;;;;;;7372205;19;21072;-69
2023/09/05 11:49:52;;;;;;;2.08;1.50;;;26.20;1.00;;;;;;7364442;19;20110;-71
2023/09/05 11:52:32;;;;;;;2.25;1.75;;;25.90;1.00;;;;;;7372019;19;20010;-69
2023/09/05 11:55:06;;;;;;;1.80;1.20;;;26.20;1.00;;;;;;7372040;19;20369;-70
2023/09/05 11:57:44;;;;;;;2.28;1.20;;;26.20;1.00;;;;;;7371438;19;20021;-69
2023/09/05 12:00:22;;;;;;;2.17;1.45;;;26.40;1.00;;;;;;7368664;19;20123;-70
2023/09/05 12:03:09;;;;;;;1.65;1.13;;;26.50;1.00;;;;;;7372280;19;20082;-71
2023/09/05 12:05:48;;;;;;;4.55;1.30;;;26.30;1.00;;;;;;7370537;19;20014;-70
2023/09/05 12:08:21;;;;;;;7.40;1.30;;;26.50;1.00;;;;;;7363859;19;20726;-71
2023/09/05 12:11:06;;;;;;;2.47;1.20;;;26.70;1.00;;;;;;7370912;19;20015;-70
2023/09/05 12:13:43;;;;;;;2.25;1.40;;;26.60;1.00;;;;;;7371510;19;20007;-70
2023/09/05 12:16:17;;;;;;;4.93;1.20;;;26.60;1.00;;;;;;7372269;19;20014;-71
2023/09/05 12:18:59;;;;;;;3.88;1.42;;;26.70;1.00;;;;;;7363585;19;20475;-71
2023/09/05 12:21:43;;;;;;;6.03;1.80;;;26.70;1.00;;;;;;7369744;19;20022;-70
2023/09/05 12:24:22;;;;;;;2.25;1.42;;;26.70;1.00;;;;;;7371209;19;20272;-71
2023/09/05 12:26:59;;;;;;;5.03;1.42;;;26.70;1.00;;;;;;7369971;19;20007;-70
2023/09/05 12:29:43;;;;;;;1.60;1.20;;;26.60;1.00;;;;;;7372473;19;20680;-69
2023/09/05 12:32:17;;;;;;;1.80;1.20;;;26.40;1.00;;;;;;7378820;19;20557;-71
2023/09/05 12:34:56;;;;;;;1.23;1.00;;;26.50;1.00;;;;;;7378454;19;20018;-70
2023/09/05 12:37:29;;;;;;;4.43;1.58;;;26.80;1.00;;;;;;7378705;19;20454;-69
2023/09/05 12:40:05;;;;;;;1.92;1.20;;;27.00;1.00;;;;;;7371277;19;20018;-69
2023/09/05 12:42:38;;;;;;;2.20;1.20;;;27.20;1.00;;;;;;7378491;19;20728;-70
2023/09/05 12:45:18;;;;;;;1.60;1.25;;;27.30;1.00;;;;;;7377632;19;20014;-71
2023/09/05 12:47:51;;;;;;;5.05;1.80;;;27.20;1.00;;;;;;7374039;19;20015;-71
2023/09/05 12:50:32;;;;;;;2.75;1.20;;;27.00;1.00;;;;;;7374991;19;20515;-71
2023/09/05 12:53:04;;;;;;;3.83;1.30;;;27.00;1.00;;;;;;7377882;19;20471;-71
2023/09/05 12:55:46;;;;;;;1.75;1.45;;;26.90;1.00;;;;;;7377358;19;20066;-71
2023/09/05 12:58:33;;;;;;;2.58;1.38;;;27.10;1.00;;;;;;7371222;19;20081;-70
2023/09/05 13:01:06;;;;;;;2.40;1.10;;;26.90;1.00;;;;;;7378193;19;20035;-70
2023/09/05 13:03:39;;;;;;;1.27;1.13;;;26.80;1.00;;;;;;7377477;19;20006;-70
2023/09/05 13:06:19;;;;;;;2.30;1.23;;;27.00;1.00;;;;;;7376464;19;20014;-69
2023/09/05 13:08:58;;;;;;;1.45;1.08;;;26.90;1.00;;;;;;7369991;19;20011;-70
2023/09/05 13:11:29;;;;;;;1.20;0.95;;;26.90;1.00;;;;;;7374986;19;20010;-70
2023/09/05 13:14:00;;;;;;;2.83;1.35;;;27.10;1.00;;;;;;7377493;19;20003;-71
2023/09/05 13:16:35;;;;;;;2.25;1.27;;;27.00;1.00;;;;;;7377406;19;20007;-69
2023/09/05 13:19:08;;;;;;;2.47;1.30;;;27.20;1.00;;;;;;7368766;19;20044;-71
2023/09/05 13:21:43;;;;;;;1.58;1.20;;;27.10;1.00;;;;;;7374356;19;20022;-72
2023/09/05 13:24:21;;;;;;;1.17;0.98;;;27.10;1.00;;;;;;7380159;19;20023;-71